createdAt,value
2018-11-02T00:00:20.556Z,98.07
2018-11-02T00:01:20.736Z,98.07
2018-11-02T00:02:20.725Z,98.07
2018-11-02T00:03:20.704Z,97.97
2018-11-02T00:04:20.682Z,97.78
2018-11-02T00:05:20.431Z,97.97
2018-11-02T00:06:20.508Z,97.88
2018-11-02T00:07:20.401Z,98.74
2018-11-02T00:08:20.652Z,98.26
2018-11-02T00:09:20.646Z,98.07
2018-11-02T00:10:20.662Z,97.97
2018-11-02T00:11:20.622Z,98.64
2018-11-02T00:12:20.943Z,98.45
2018-11-02T00:13:20.596Z,98.55
2018-11-02T00:14:20.820Z,98.26
2018-11-02T00:15:20.571Z,98.07
2018-11-02T00:16:20.548Z,97.88
2018-11-02T00:17:20.289Z,97.88
2018-11-02T00:18:20.540Z,97.88
2018-11-02T00:19:20.549Z,97.5
2018-11-02T00:20:20.525Z,97.78
2018-11-02T00:21:20.499Z,97.88
2018-11-02T00:22:20.497Z,97.78
2018-11-02T00:23:20.471Z,97.5
2018-11-02T00:24:20.700Z,97.78
2018-11-02T00:25:20.444Z,97.88
2018-11-02T00:26:20.452Z,97.78
2018-11-02T00:27:20.418Z,97.97
2018-11-02T00:28:20.444Z,97.97
2018-11-02T00:29:20.396Z,97.88
2018-11-02T00:30:20.399Z,97.78
2018-11-02T00:31:20.414Z,98.07
2018-11-02T00:32:20.362Z,97.6
2018-11-02T00:33:20.107Z,98.07
2018-11-02T00:34:20.540Z,97.78
2018-11-02T00:35:20.330Z,97.78
2018-11-02T00:36:20.058Z,98.07
2018-11-02T00:37:20.305Z,98.07
2018-11-02T00:38:20.315Z,97.97
2018-11-02T00:39:20.324Z,97.97
2018-11-02T00:40:20.030Z,97.97
2018-11-02T00:41:20.259Z,97.88
2018-11-02T00:42:20.271Z,98.26
2018-11-02T00:43:20.236Z,97.69
2018-11-02T00:44:20.244Z,97.78
2018-11-02T00:45:19.956Z,97.88
2018-11-02T00:46:20.247Z,98.07
2018-11-02T00:47:20.201Z,97.83
2018-11-02T00:48:20.198Z,97.92
2018-11-02T00:49:20.168Z,97.78
2018-11-02T00:50:20.160Z,97.83
2018-11-02T00:51:20.161Z,97.92
2018-11-02T00:52:20.152Z,97.78
2018-11-02T00:53:20.141Z,98.02
2018-11-02T00:54:20.106Z,97.92
2018-11-02T00:55:20.446Z,98.02
2018-11-02T00:56:20.109Z,97.69
2018-11-02T00:57:20.091Z,97.74
2018-11-02T00:58:20.079Z,97.74
2018-11-02T00:59:20.106Z,97.92
2018-11-02T01:00:20.060Z,98.02
2018-11-02T01:01:20.031Z,97.92
2018-11-02T01:02:20.034Z,97.74
2018-11-02T01:03:20.019Z,97.92
2018-11-02T01:04:20.014Z,97.92
2018-11-02T01:05:20.249Z,97.92
2018-11-02T01:06:19.970Z,97.92
2018-11-02T01:07:19.974Z,97.92
2018-11-02T01:08:19.965Z,97.45
2018-11-02T01:09:19.949Z,97.83
2018-11-02T01:10:19.921Z,97.83
2018-11-02T01:11:19.661Z,98.12
2018-11-02T01:12:19.895Z,98.21
2018-11-02T01:13:19.904Z,98.5
2018-11-02T01:14:19.622Z,98.17
2018-11-02T01:15:20.183Z,98.02
2018-11-02T01:16:19.595Z,98.07
2018-11-02T01:17:19.596Z,97.97
2018-11-02T01:18:19.825Z,98.17
2018-11-02T01:19:19.562Z,97.88
2018-11-02T01:20:19.806Z,97.5
2018-11-02T01:21:19.811Z,97.69
2018-11-02T01:22:19.782Z,97.97
2018-11-02T01:23:19.780Z,97.97
2018-11-02T01:24:19.776Z,97.41
2018-11-02T01:25:20.023Z,97.5
2018-11-02T01:26:19.780Z,97.5
2018-11-02T01:27:19.737Z,97.5
2018-11-02T01:28:19.722Z,97.78
2018-11-02T01:29:19.460Z,97.31
2018-11-02T01:30:19.687Z,97.5
2018-11-02T01:31:19.690Z,97.17
2018-11-02T01:32:19.691Z,97.55
2018-11-02T01:33:19.673Z,96.98
2018-11-02T01:34:19.385Z,96.98
2018-11-02T01:35:19.736Z,97.27
2018-11-02T01:36:19.635Z,97.17
2018-11-02T01:37:19.611Z,97.45
2018-11-02T01:38:19.596Z,97.36
2018-11-02T01:39:19.371Z,97.45
2018-11-02T01:40:19.333Z,97.41
2018-11-02T01:41:19.585Z,97.5
2018-11-02T01:42:19.555Z,97.31
2018-11-02T01:43:19.552Z,97.5
2018-11-02T01:44:19.561Z,97.41
2018-11-02T01:45:19.534Z,97.5
2018-11-02T01:46:19.250Z,97.41
2018-11-02T01:47:19.509Z,97.5
2018-11-02T01:48:19.503Z,97.5
2018-11-02T01:49:19.473Z,97.5
2018-11-02T01:50:19.489Z,97.5
2018-11-02T01:51:19.466Z,97.6
2018-11-02T01:52:19.197Z,97.6
2018-11-02T01:53:19.428Z,97.22
2018-11-02T01:54:19.422Z,97.41
2018-11-02T01:55:19.417Z,97.41
2018-11-02T01:56:19.663Z,97.12
2018-11-02T01:57:19.412Z,97.07
2018-11-02T01:58:19.415Z,97.27
2018-11-02T01:59:19.118Z,96.98
2018-11-02T02:00:19.348Z,97.31
2018-11-02T02:01:19.352Z,97.17
2018-11-02T02:02:19.357Z,97.55
2018-11-02T02:03:19.070Z,97.45
2018-11-02T02:04:19.301Z,97.64
2018-11-02T02:05:19.341Z,97.64
2018-11-02T02:06:19.494Z,97.64
2018-11-02T02:07:19.303Z,98.02
2018-11-02T02:08:19.258Z,97.74
2018-11-02T02:09:19.261Z,97.74
2018-11-02T02:10:19.250Z,97.83
2018-11-02T02:11:19.225Z,97.64
2018-11-02T02:12:19.212Z,97.64
2018-11-02T02:13:19.557Z,97.83
2018-11-02T02:14:19.183Z,97.74
2018-11-02T02:15:19.203Z,97.74
2018-11-02T02:16:19.168Z,98.02
2018-11-02T02:17:19.177Z,97.92
2018-11-02T02:18:19.175Z,97.92
2018-11-02T02:19:18.885Z,98.02
2018-11-02T02:20:19.117Z,98.21
2018-11-02T02:21:19.126Z,97.92
2018-11-02T02:22:19.093Z,98.21
2018-11-02T02:23:19.081Z,97.92
2018-11-02T02:24:19.090Z,97.74
2018-11-02T02:25:19.073Z,97.92
2018-11-02T02:26:18.801Z,97.92
2018-11-02T02:27:19.328Z,97.97
2018-11-02T02:28:19.046Z,98.02
2018-11-02T02:29:19.002Z,97.88
2018-11-02T02:30:19.024Z,97.97
2018-11-02T02:31:18.988Z,98.16
2018-11-02T02:32:19.000Z,98.45
2018-11-02T02:33:18.964Z,98.35
2018-11-02T02:34:18.965Z,98.54
2018-11-02T02:35:18.943Z,98.45
2018-11-02T02:36:18.946Z,98.45
2018-11-02T02:37:19.227Z,98.45
2018-11-02T02:38:18.917Z,98.35
2018-11-02T02:39:18.896Z,98.16
2018-11-02T02:40:18.877Z,98.16
2018-11-02T02:41:18.883Z,98.26
2018-11-02T02:42:18.869Z,98.35
2018-11-02T02:43:18.843Z,98.16
2018-11-02T02:44:18.825Z,98.07
2018-11-02T02:45:18.820Z,98.07
2018-11-02T02:46:18.820Z,98.26
2018-11-02T02:47:19.066Z,98.07
2018-11-02T02:48:18.794Z,98.35
2018-11-02T02:49:18.508Z,97.88
2018-11-02T02:50:18.772Z,97.78
2018-11-02T02:51:18.750Z,97.97
2018-11-02T02:52:18.750Z,98.54
2018-11-02T02:53:18.714Z,97.97
2018-11-02T02:54:18.722Z,98.35
2018-11-02T02:55:18.712Z,97.97
2018-11-02T02:56:18.700Z,98.26
2018-11-02T02:57:18.985Z,98.35
2018-11-02T02:58:18.657Z,98.07
2018-11-02T02:59:18.396Z,97.88
2018-11-02T03:00:18.672Z,98.45
2018-11-02T03:01:18.634Z,98.45
2018-11-02T03:02:18.608Z,98.07
2018-11-02T03:03:18.610Z,98.54
2018-11-02T03:04:18.601Z,97.88
2018-11-02T03:05:18.580Z,98.45
2018-11-02T03:06:18.579Z,98.35
2018-11-02T03:07:18.745Z,98.26
2018-11-02T03:08:18.552Z,98.35
2018-11-02T03:09:18.520Z,98.54
2018-11-02T03:10:18.679Z,98.45
2018-11-02T03:11:18.801Z,97.88
2018-11-02T03:12:18.506Z,97.88
2018-11-02T03:13:18.512Z,97.97
2018-11-02T03:14:18.458Z,97.88
2018-11-02T03:15:18.462Z,97.78
2018-11-02T03:16:18.452Z,97.78
2018-11-02T03:17:18.422Z,97.6
2018-11-02T03:18:18.427Z,97.78
2018-11-02T03:19:18.408Z,97.97
2018-11-02T03:20:18.142Z,97.69
2018-11-02T03:21:18.418Z,97.97
2018-11-02T03:22:18.473Z,98.16
2018-11-02T03:23:18.353Z,97.97
2018-11-02T03:24:18.351Z,97.88
2018-11-02T03:25:18.323Z,98.16
2018-11-02T03:26:18.330Z,97.88
2018-11-02T03:27:18.308Z,98.16
2018-11-02T03:28:18.309Z,98.16
2018-11-02T03:29:18.274Z,97.88
2018-11-02T03:30:18.297Z,97.78
2018-11-02T03:31:18.250Z,98.07
2018-11-02T03:32:18.251Z,97.97
2018-11-02T03:33:18.226Z,97.88
2018-11-02T03:34:18.231Z,97.97
2018-11-02T03:35:18.206Z,97.88
2018-11-02T03:36:18.204Z,97.97
2018-11-02T03:37:18.357Z,97.88
2018-11-02T03:38:18.184Z,97.78
2018-11-02T03:39:18.205Z,97.88
2018-11-02T03:40:18.179Z,97.88
2018-11-02T03:41:18.132Z,97.69
2018-11-02T03:42:18.130Z,97.6
2018-11-02T03:43:18.118Z,97.78
2018-11-02T03:44:18.106Z,97.41
2018-11-02T03:45:18.079Z,97.31
2018-11-02T03:46:18.071Z,97.22
2018-11-02T03:47:18.061Z,97.5
2018-11-02T03:48:17.796Z,97.5
2018-11-02T03:49:18.041Z,97.41
2018-11-02T03:50:18.022Z,97.69
2018-11-02T03:51:18.022Z,97.5
2018-11-02T03:52:17.989Z,97.5
2018-11-02T03:53:17.999Z,97.5
2018-11-02T03:54:18.164Z,97.02
2018-11-02T03:55:17.990Z,97.41
2018-11-02T03:56:17.720Z,96.83
2018-11-02T03:57:17.927Z,97.22
2018-11-02T03:58:18.342Z,96.83
2018-11-02T03:59:17.924Z,97.22
2018-11-02T04:00:17.908Z,97.22
2018-11-02T04:01:17.892Z,97.22
2018-11-02T04:02:17.871Z,97.12
2018-11-02T04:03:17.875Z,97.45
2018-11-02T04:04:17.870Z,96.83
2018-11-02T04:05:17.855Z,97.27
2018-11-02T04:06:17.836Z,97.27
2018-11-02T04:07:17.830Z,97.27
2018-11-02T04:08:18.119Z,97.27
2018-11-02T04:09:17.878Z,97.27
2018-11-02T04:10:17.774Z,97.36
2018-11-02T04:11:17.783Z,97.27
2018-11-02T04:12:17.750Z,97.36
2018-11-02T04:13:17.755Z,97.27
2018-11-02T04:14:17.729Z,97.27
2018-11-02T04:15:17.726Z,97.27
2018-11-02T04:16:17.697Z,97.27
2018-11-02T04:17:17.709Z,97.17
2018-11-02T04:18:17.431Z,97.17
2018-11-02T04:19:17.412Z,97.55
2018-11-02T04:20:17.656Z,97.36
2018-11-02T04:21:17.656Z,97.36
2018-11-02T04:22:17.625Z,97.36
2018-11-02T04:23:17.367Z,97.55
2018-11-02T04:24:17.606Z,97.27
2018-11-02T04:25:17.664Z,97.45
2018-11-02T04:26:17.587Z,97.36
2018-11-02T04:27:17.580Z,97.36
2018-11-02T04:28:17.296Z,96.88
2018-11-02T04:29:17.556Z,97.27
2018-11-02T04:30:17.526Z,97.17
2018-11-02T04:31:17.521Z,97.45
2018-11-02T04:32:17.516Z,96.98
2018-11-02T04:33:17.514Z,96.69
2018-11-02T04:34:17.501Z,96.88
2018-11-02T04:35:17.521Z,96.6
2018-11-02T04:36:17.454Z,96.6
2018-11-02T04:37:17.461Z,96.69
2018-11-02T04:38:17.449Z,96.6
2018-11-02T04:39:17.434Z,96.31
2018-11-02T04:40:17.425Z,96.6
2018-11-02T04:41:17.430Z,96.6
2018-11-02T04:42:17.401Z,96.41
2018-11-02T04:43:17.375Z,96.41
2018-11-02T04:44:17.383Z,96.5
2018-11-02T04:45:17.359Z,96.69
2018-11-02T04:46:17.352Z,96.41
2018-11-02T04:47:17.328Z,96.5
2018-11-02T04:48:17.308Z,96.5
2018-11-02T04:49:17.690Z,96.41
2018-11-02T04:50:17.310Z,96.41
2018-11-02T04:51:17.740Z,96.41
2018-11-02T04:52:17.263Z,96.41
2018-11-02T04:53:17.257Z,96.6
2018-11-02T04:54:17.257Z,96.5
2018-11-02T04:55:17.234Z,96.6
2018-11-02T04:56:17.267Z,96.41
2018-11-02T04:57:17.202Z,96.6
2018-11-02T04:58:17.210Z,96.69
2018-11-02T04:59:16.925Z,96.31
2018-11-02T05:00:17.189Z,96.6
2018-11-02T05:01:17.165Z,96.6
2018-11-02T05:02:16.902Z,96.6
2018-11-02T05:03:17.143Z,96.5
2018-11-02T05:04:17.143Z,96.5
2018-11-02T05:05:17.117Z,96.41
2018-11-02T05:06:17.099Z,96.41
2018-11-02T05:07:17.108Z,96.6
2018-11-02T05:08:17.109Z,96.69
2018-11-02T05:09:17.307Z,96.64
2018-11-02T05:10:17.046Z,96.69
2018-11-02T05:11:17.174Z,96.69
2018-11-02T05:12:17.042Z,96.69
2018-11-02T05:13:17.012Z,96.88
2018-11-02T05:14:17.016Z,97.02
2018-11-02T05:15:16.986Z,96.98
2018-11-02T05:16:16.994Z,96.64
2018-11-02T05:17:16.965Z,96.88
2018-11-02T05:18:16.972Z,96.69
2018-11-02T05:19:17.213Z,96.88
2018-11-02T05:20:16.682Z,96.69
2018-11-02T05:21:17.054Z,96.98
2018-11-02T05:22:16.645Z,96.98
2018-11-02T05:23:16.905Z,96.69
2018-11-02T05:24:16.901Z,97.17
2018-11-02T05:25:16.883Z,96.69
2018-11-02T05:26:16.861Z,96.88
2018-11-02T05:27:16.858Z,96.88
2018-11-02T05:28:16.830Z,96.98
2018-11-02T05:29:16.935Z,96.74
2018-11-02T05:30:16.549Z,96.64
2018-11-02T05:31:16.549Z,96.64
2018-11-02T05:32:16.524Z,96.83
2018-11-02T05:33:16.526Z,96.83
2018-11-02T05:34:16.499Z,96.93
2018-11-02T05:35:16.749Z,96.93
2018-11-02T05:36:16.480Z,96.88
2018-11-02T05:37:16.740Z,96.93
2018-11-02T05:38:16.706Z,96.64
2018-11-02T05:39:16.813Z,96.74
2018-11-02T05:40:17.007Z,96.93
2018-11-02T05:41:16.697Z,96.93
2018-11-02T05:42:16.658Z,96.74
2018-11-02T05:43:16.661Z,96.93
2018-11-02T05:44:16.635Z,96.93
2018-11-02T05:45:16.640Z,96.93
2018-11-02T05:46:16.607Z,96.93
2018-11-02T05:47:16.864Z,96.93
2018-11-02T05:48:16.595Z,97.02
2018-11-02T05:49:16.596Z,96.93
2018-11-02T05:50:16.919Z,97.02
2018-11-02T05:51:16.551Z,96.93
2018-11-02T05:52:16.542Z,96.93
2018-11-02T05:53:16.547Z,96.93
2018-11-02T05:54:16.814Z,97.02
2018-11-02T05:55:16.512Z,97.02
2018-11-02T05:56:16.491Z,97.02
2018-11-02T05:57:16.487Z,96.74
2018-11-02T05:58:16.482Z,96.74
2018-11-02T05:59:16.458Z,96.64
2018-11-02T06:00:16.780Z,97.02
2018-11-02T06:01:16.439Z,97.02
2018-11-02T06:02:16.441Z,96.74
2018-11-02T06:03:16.404Z,96.93
2018-11-02T06:04:16.424Z,96.64
2018-11-02T06:05:16.398Z,96.64
2018-11-02T06:06:16.107Z,96.74
2018-11-02T06:07:16.357Z,96.93
2018-11-02T06:08:16.081Z,96.93
2018-11-02T06:09:16.346Z,97.31
2018-11-02T06:10:16.513Z,97.5
2018-11-02T06:11:16.053Z,97.5
2018-11-02T06:12:16.293Z,97.41
2018-11-02T06:13:16.276Z,97.5
2018-11-02T06:14:16.282Z,97.31
2018-11-02T06:15:16.262Z,97.41
2018-11-02T06:16:16.261Z,97.5
2018-11-02T06:17:16.246Z,97.6
2018-11-02T06:18:16.234Z,97.5
2018-11-02T06:19:15.950Z,97.5
2018-11-02T06:20:16.213Z,97.31
2018-11-02T06:21:15.921Z,97.5
2018-11-02T06:22:16.188Z,97.5
2018-11-02T06:23:15.907Z,97.31
2018-11-02T06:24:16.358Z,97.31
2018-11-02T06:25:15.873Z,97.31
2018-11-02T06:26:15.867Z,97.5
2018-11-02T06:27:15.883Z,97.31
2018-11-02T06:28:16.111Z,97.31
2018-11-02T06:29:16.083Z,97.22
2018-11-02T06:30:16.101Z,97.41
2018-11-02T06:31:15.806Z,97.5
2018-11-02T06:32:16.061Z,97.22
2018-11-02T06:33:16.029Z,97.41
2018-11-02T06:34:16.041Z,97.22
2018-11-02T06:35:16.006Z,97.5
2018-11-02T06:36:16.011Z,96.93
2018-11-02T06:37:16.005Z,97.5
2018-11-02T06:38:15.987Z,97.31
2018-11-02T06:39:15.737Z,97.02
2018-11-02T06:40:15.965Z,97.41
2018-11-02T06:41:16.228Z,96.69
2018-11-02T06:42:15.936Z,96.26
2018-11-02T06:43:15.912Z,96.5
2018-11-02T06:44:15.897Z,96.31
2018-11-02T06:45:16.039Z,96.69
2018-11-02T06:46:15.890Z,96.6
2018-11-02T06:47:15.867Z,96.12
2018-11-02T06:48:15.866Z,96.41
2018-11-02T06:49:15.579Z,96.6
2018-11-02T06:50:15.842Z,96.5
2018-11-02T06:51:15.823Z,96.69
2018-11-02T06:52:15.816Z,96.5
2018-11-02T06:53:15.792Z,96.69
2018-11-02T06:54:15.800Z,96.5
2018-11-02T06:55:15.766Z,96.6
2018-11-02T06:56:15.495Z,96.6
2018-11-02T06:57:15.755Z,96.6
2018-11-02T06:58:15.747Z,96.6
2018-11-02T06:59:15.997Z,96.6
2018-11-02T07:00:15.820Z,96.5
2018-11-02T07:01:15.694Z,96.55
2018-11-02T07:02:15.936Z,96.69
2018-11-02T07:03:15.676Z,96.74
2018-11-02T07:04:15.673Z,96.65
2018-11-02T07:05:15.649Z,96.65
2018-11-02T07:06:15.661Z,96.26
2018-11-02T07:07:15.990Z,96.26
2018-11-02T07:08:15.725Z,96.55
2018-11-02T07:09:15.605Z,96.74
2018-11-02T07:10:15.606Z,96.45
2018-11-02T07:11:15.597Z,96.55
2018-11-02T07:12:15.327Z,96.03
2018-11-02T07:13:15.569Z,95.84
2018-11-02T07:14:15.558Z,96.12
2018-11-02T07:15:15.289Z,96.03
2018-11-02T07:16:15.551Z,96.22
2018-11-02T07:17:15.533Z,95.94
2018-11-02T07:18:15.503Z,96.03
2018-11-02T07:19:15.513Z,96.12
2018-11-02T07:20:15.507Z,96.31
2018-11-02T07:21:15.474Z,96.12
2018-11-02T07:22:15.227Z,96.26
2018-11-02T07:23:15.459Z,95.6
2018-11-02T07:24:15.200Z,95.6
2018-11-02T07:25:15.239Z,95.89
2018-11-02T07:26:15.445Z,95.89
2018-11-02T07:27:15.433Z,95.79
2018-11-02T07:28:15.421Z,95.98
2018-11-02T07:29:15.404Z,95.89
2018-11-02T07:30:15.420Z,95.79
2018-11-02T07:31:15.380Z,95.79
2018-11-02T07:32:15.382Z,95.7
2018-11-02T07:33:15.693Z,95.7
2018-11-02T07:34:15.387Z,95.98
2018-11-02T07:35:15.372Z,95.89
2018-11-02T07:36:15.320Z,95.7
2018-11-02T07:37:15.332Z,95.6
2018-11-02T07:38:15.320Z,95.51
2018-11-02T07:39:15.307Z,95.56
2018-11-02T07:40:15.023Z,95.75
2018-11-02T07:41:15.353Z,95.6
2018-11-02T07:42:15.386Z,95.7
2018-11-02T07:43:15.343Z,95.7
2018-11-02T07:44:15.241Z,95.36
2018-11-02T07:45:15.253Z,95.36
2018-11-02T07:46:15.221Z,95.84
2018-11-02T07:47:15.361Z,95.94
2018-11-02T07:48:15.249Z,95.46
2018-11-02T07:49:15.245Z,95.46
2018-11-02T07:50:15.301Z,95.36
2018-11-02T07:51:15.179Z,95.36
2018-11-02T07:52:15.162Z,95.17
2018-11-02T07:53:15.176Z,95.27
2018-11-02T07:54:15.140Z,95.27
2018-11-02T07:55:15.152Z,95.17
2018-11-02T07:56:14.862Z,95.36
2018-11-02T07:57:15.129Z,94.7
2018-11-02T07:58:15.097Z,95.36
2018-11-02T07:59:15.095Z,94.98
2018-11-02T08:00:15.081Z,95.17
2018-11-02T08:01:15.089Z,94.89
2018-11-02T08:02:15.079Z,94.89
2018-11-02T08:03:14.797Z,94.98
2018-11-02T08:04:15.314Z,94.7
2018-11-02T08:05:15.030Z,94.79
2018-11-02T08:06:15.046Z,94.7
2018-11-02T08:07:15.015Z,94.7
2018-11-02T08:08:15.015Z,94.93
2018-11-02T08:09:14.987Z,94.37
2018-11-02T08:10:14.999Z,94.65
2018-11-02T08:11:15.057Z,94.84
2018-11-02T08:12:14.958Z,94.37
2018-11-02T08:13:14.962Z,94.74
2018-11-02T08:14:15.149Z,94.27
2018-11-02T08:15:14.677Z,94.37
2018-11-02T08:16:14.919Z,94.37
2018-11-02T08:17:14.927Z,93.98
2018-11-02T08:18:14.916Z,94.08
2018-11-02T08:19:14.639Z,94.27
2018-11-02T08:20:14.625Z,94.41
2018-11-02T08:21:14.868Z,93.93
2018-11-02T08:22:14.621Z,93.74
2018-11-02T08:23:14.854Z,93.84
2018-11-02T08:24:14.840Z,93.74
2018-11-02T08:25:14.847Z,93.55
2018-11-02T08:26:14.573Z,93.93
2018-11-02T08:27:14.829Z,93.46
2018-11-02T08:28:14.551Z,93.27
2018-11-02T08:29:14.813Z,93.65
2018-11-02T08:30:14.784Z,93.12
2018-11-02T08:31:14.780Z,93.12
2018-11-02T08:32:15.082Z,93.41
2018-11-02T08:33:14.776Z,93.41
2018-11-02T08:34:14.765Z,93.12
2018-11-02T08:35:14.491Z,93.12
2018-11-02T08:36:14.481Z,92.65
2018-11-02T08:37:14.738Z,93.12
2018-11-02T08:38:14.711Z,93.12
2018-11-02T08:39:14.717Z,93.12
2018-11-02T08:40:14.441Z,93.41
2018-11-02T08:41:14.701Z,92.22
2018-11-02T08:42:14.675Z,92.5
2018-11-02T08:43:14.429Z,92.6
2018-11-02T08:44:14.658Z,92.79
2018-11-02T08:45:14.665Z,92.98
2018-11-02T08:46:14.643Z,92.41
2018-11-02T08:47:14.638Z,92.03
2018-11-02T08:48:14.625Z,91.55
2018-11-02T08:49:14.635Z,91.78
2018-11-02T08:50:14.622Z,91.69
2018-11-02T08:51:14.608Z,91.69
2018-11-02T08:52:14.712Z,90.83
2018-11-02T08:53:14.329Z,90.11
2018-11-02T08:54:14.594Z,89.45
2018-11-02T08:55:14.582Z,89.64
2018-11-02T08:56:14.579Z,89.59
2018-11-02T08:57:14.549Z,89.01
2018-11-02T08:58:14.850Z,89.3
2018-11-02T08:59:14.833Z,88.54
2018-11-02T09:00:14.741Z,89.11
2018-11-02T09:01:14.268Z,88.82
2018-11-02T09:02:14.530Z,88.92
2018-11-02T09:03:14.514Z,88.01
2018-11-02T09:04:14.498Z,88.01
2018-11-02T09:05:14.935Z,88.2
2018-11-02T09:06:14.501Z,88.2
2018-11-02T09:07:14.477Z,88.29
2018-11-02T09:08:14.467Z,88.1
2018-11-02T09:09:14.462Z,88.29
2018-11-02T09:10:14.471Z,87.91
2018-11-02T09:11:14.451Z,88.01
2018-11-02T09:12:14.563Z,88.01
2018-11-02T09:13:14.436Z,87.91
2018-11-02T09:14:14.444Z,88.1
2018-11-02T09:15:14.419Z,88.01
2018-11-02T09:16:14.429Z,87.05
2018-11-02T09:17:14.446Z,87.76
2018-11-02T09:18:14.418Z,87.38
2018-11-02T09:19:14.193Z,87.86
2018-11-02T09:20:14.428Z,87.29
2018-11-02T09:21:14.379Z,87.38
2018-11-02T09:22:14.371Z,87
2018-11-02T09:23:14.377Z,87.09
2018-11-02T09:24:14.376Z,87.38
2018-11-02T09:25:14.367Z,87.09
2018-11-02T09:26:14.343Z,86.43
2018-11-02T09:27:14.368Z,86.23
2018-11-02T09:28:14.519Z,86.52
2018-11-02T09:29:14.325Z,86.71
2018-11-02T09:30:14.335Z,86.33
2018-11-02T09:31:14.313Z,86.57
2018-11-02T09:32:14.323Z,86.37
2018-11-02T09:33:14.308Z,86.18
2018-11-02T09:34:14.324Z,86.28
2018-11-02T09:35:14.323Z,85.8
2018-11-02T09:36:14.303Z,85.65
2018-11-02T09:37:14.290Z,85.27
2018-11-02T09:38:14.282Z,84.79
2018-11-02T09:39:14.282Z,83.93
2018-11-02T09:40:14.370Z,84.22
2018-11-02T09:41:14.285Z,84.26
2018-11-02T09:42:14.250Z,83.49
2018-11-02T09:43:14.610Z,83.3
2018-11-02T09:44:14.244Z,83.59
2018-11-02T09:45:14.264Z,83.68
2018-11-02T09:46:14.257Z,83.3
2018-11-02T09:47:14.252Z,83.44
2018-11-02T09:48:14.235Z,82.38
2018-11-02T09:49:14.229Z,82.38
2018-11-02T09:50:14.215Z,81.81
2018-11-02T09:51:14.283Z,81.62
2018-11-02T09:52:14.507Z,81.56
2018-11-02T09:53:14.594Z,81.46
2018-11-02T09:54:14.196Z,82.14
2018-11-02T09:55:13.932Z,81.46
2018-11-02T09:56:13.930Z,80.6
2018-11-02T09:57:14.189Z,80.51
2018-11-02T09:58:14.172Z,80.51
2018-11-02T09:59:14.181Z,80.12
2018-11-02T10:00:14.162Z,80.51
2018-11-02T10:01:14.176Z,80.12
2018-11-02T10:02:14.460Z,80.35
2018-11-02T10:03:13.898Z,80.45
2018-11-02T10:04:14.139Z,80.07
2018-11-02T10:05:14.174Z,79.68
2018-11-02T10:06:14.133Z,79.88
2018-11-02T10:07:14.143Z,79.68
2018-11-02T10:08:14.161Z,79.21
2018-11-02T10:09:14.417Z,79.01
2018-11-02T10:10:14.119Z,79.36
2018-11-02T10:11:14.116Z,79.64
2018-11-02T10:12:14.120Z,79.93
2018-11-02T10:13:14.327Z,79.45
2018-11-02T10:14:14.090Z,79.83
2018-11-02T10:15:14.101Z,79.45
2018-11-02T10:16:14.080Z,79.26
2018-11-02T10:17:14.095Z,79.16
2018-11-02T10:18:14.073Z,79.83
2018-11-02T10:19:14.084Z,79.83
2018-11-02T10:20:14.082Z,79.83
2018-11-02T10:21:14.058Z,79.26
2018-11-02T10:22:14.075Z,78.97
2018-11-02T10:23:14.372Z,78.78
2018-11-02T10:24:14.067Z,79.26
2018-11-02T10:25:14.046Z,79.36
2018-11-02T10:26:13.775Z,79.45
2018-11-02T10:27:14.048Z,79.55
2018-11-02T10:28:13.914Z,79.55
2018-11-02T10:29:14.037Z,79.55
2018-11-02T10:30:14.022Z,80.12
2018-11-02T10:31:14.025Z,79.83
2018-11-02T10:32:14.013Z,80.51
2018-11-02T10:33:14.205Z,80.6
2018-11-02T10:34:14.028Z,79.74
2018-11-02T10:35:14.100Z,79.7
2018-11-02T10:36:13.729Z,79.99
2018-11-02T10:37:13.998Z,80.18
2018-11-02T10:38:13.996Z,80.27
2018-11-02T10:39:14.033Z,80.76
2018-11-02T10:40:13.964Z,80.76
2018-11-02T10:41:14.005Z,80.27
2018-11-02T10:42:13.979Z,80.08
2018-11-02T10:43:14.261Z,80.18
2018-11-02T10:44:14.110Z,79.99
2018-11-02T10:45:13.966Z,80.32
2018-11-02T10:46:13.679Z,80.41
2018-11-02T10:47:13.947Z,80.41
2018-11-02T10:48:13.950Z,80.41
2018-11-02T10:49:14.004Z,80.03
2018-11-02T10:50:13.926Z,78.97
2018-11-02T10:51:14.011Z,78.97
2018-11-02T10:52:13.917Z,78.97
2018-11-02T10:53:14.184Z,78.97
2018-11-02T10:54:13.899Z,79.07
2018-11-02T10:55:13.899Z,78.3
2018-11-02T10:56:13.893Z,78.3
2018-11-02T10:57:13.906Z,78.3
2018-11-02T10:58:13.894Z,77.82
2018-11-02T10:59:13.623Z,77.82
2018-11-02T11:00:13.872Z,78.2
2018-11-02T11:01:13.965Z,77.73
2018-11-02T11:02:13.881Z,78.11
2018-11-02T11:03:14.108Z,77.53
2018-11-02T11:04:13.864Z,77.53
2018-11-02T11:05:13.935Z,78.02
2018-11-02T11:06:13.865Z,77.53
2018-11-02T11:07:13.852Z,77.82
2018-11-02T11:08:13.849Z,77.73
2018-11-02T11:09:13.588Z,77.92
2018-11-02T11:10:13.835Z,77.25
2018-11-02T11:11:13.821Z,76.96
2018-11-02T11:12:14.180Z,76.67
2018-11-02T11:13:15.245Z,77
2018-11-02T11:14:13.828Z,77.15
2018-11-02T11:15:13.801Z,76.96
2018-11-02T11:16:13.789Z,76.86
2018-11-02T11:17:13.785Z,76.96
2018-11-02T11:18:13.799Z,77.44
2018-11-02T11:19:13.789Z,77.15
2018-11-02T11:20:13.794Z,77.34
2018-11-02T11:21:13.899Z,77.19
2018-11-02T11:22:13.779Z,77.38
2018-11-02T11:23:13.496Z,76.86
2018-11-02T11:24:13.779Z,76.62
2018-11-02T11:25:13.751Z,76.62
2018-11-02T11:26:13.776Z,76.23
2018-11-02T11:27:13.754Z,77.29
2018-11-02T11:28:13.753Z,77
2018-11-02T11:29:13.884Z,76.42
2018-11-02T11:30:13.464Z,75.9
2018-11-02T11:31:13.731Z,76.48
2018-11-02T11:32:13.732Z,76.62
2018-11-02T11:33:13.856Z,76.67
2018-11-02T11:34:13.707Z,76.29
2018-11-02T11:35:13.449Z,76.48
2018-11-02T11:36:13.727Z,76.48
2018-11-02T11:37:13.774Z,77.06
2018-11-02T11:38:13.439Z,77.63
2018-11-02T11:39:13.682Z,77.06
2018-11-02T11:40:13.693Z,77.06
2018-11-02T11:41:13.677Z,76.67
2018-11-02T11:42:13.853Z,76.19
2018-11-02T11:43:13.689Z,76.39
2018-11-02T11:44:13.679Z,76.19
2018-11-02T11:45:13.656Z,76.19
2018-11-02T11:46:13.389Z,76.57
2018-11-02T11:47:13.655Z,76.29
2018-11-02T11:48:13.656Z,76.77
2018-11-02T11:49:13.525Z,76.77
2018-11-02T11:50:13.658Z,76.57
2018-11-02T11:51:13.635Z,76.48
2018-11-02T11:52:13.833Z,76
2018-11-02T11:53:13.629Z,76.57
2018-11-02T11:54:13.664Z,76.48
2018-11-02T11:55:13.616Z,76.86
2018-11-02T11:56:13.601Z,77.25
2018-11-02T11:57:13.609Z,77.11
2018-11-02T11:58:13.590Z,77.31
2018-11-02T11:59:13.588Z,77.59
2018-11-02T12:00:13.578Z,77.59
2018-11-02T12:01:13.604Z,77.02
2018-11-02T12:02:13.987Z,77.11
2018-11-02T12:03:13.581Z,76.92
2018-11-02T12:04:13.677Z,76.92
2018-11-02T12:05:13.304Z,77.59
2018-11-02T12:06:13.285Z,77.5
2018-11-02T12:07:13.291Z,77.5
2018-11-02T12:08:13.276Z,77.59
2018-11-02T12:09:13.674Z,77.5
2018-11-02T12:10:13.672Z,77.59
2018-11-02T12:11:13.273Z,77.55
2018-11-02T12:12:13.703Z,77.46
2018-11-02T12:13:13.524Z,78.03
2018-11-02T12:14:13.502Z,77.36
2018-11-02T12:15:13.244Z,77.17
2018-11-02T12:16:13.505Z,77.26
2018-11-02T12:17:13.508Z,77.55
2018-11-02T12:18:13.505Z,77.65
2018-11-02T12:19:13.483Z,77.65
2018-11-02T12:20:13.470Z,77.65
2018-11-02T12:21:13.203Z,78.13
2018-11-02T12:22:13.485Z,78.03
2018-11-02T12:23:13.457Z,78.42
2018-11-02T12:24:13.488Z,78.22
2018-11-02T12:25:13.189Z,77.84
2018-11-02T12:26:13.190Z,78.22
2018-11-02T12:27:13.442Z,78.42
2018-11-02T12:28:13.583Z,78.03
2018-11-02T12:29:13.170Z,78.22
2018-11-02T12:30:13.152Z,79.05
2018-11-02T12:31:13.412Z,79.05
2018-11-02T12:32:13.145Z,78.76
2018-11-02T12:33:13.415Z,78.95
2018-11-02T12:34:13.405Z,78.86
2018-11-02T12:35:13.386Z,79.43
2018-11-02T12:36:13.376Z,79.62
2018-11-02T12:37:13.655Z,79.52
2018-11-02T12:38:13.394Z,79.72
2018-11-02T12:39:13.361Z,79.43
2018-11-02T12:40:13.376Z,79.52
2018-11-02T12:41:13.354Z,80.1
2018-11-02T12:42:13.394Z,80.19
2018-11-02T12:43:13.826Z,80
2018-11-02T12:44:13.346Z,80.58
2018-11-02T12:45:13.061Z,80.38
2018-11-02T12:46:13.344Z,80.58
2018-11-02T12:47:13.322Z,80.19
2018-11-02T12:48:13.074Z,80.38
2018-11-02T12:49:14.199Z,80.1
2018-11-02T12:50:13.639Z,80.29
2018-11-02T12:51:13.299Z,80.29
2018-11-02T12:52:13.297Z,80.29
2018-11-02T12:53:13.645Z,80.38
2018-11-02T12:54:13.292Z,80.48
2018-11-02T12:55:13.004Z,80.38
2018-11-02T12:56:13.279Z,80.54